sensor_id;sensor_type;location;lat;lon;timestamp;temperature;humidity
55634;DHT22;41504;53.162;6.788;2023-04-24T00:01:28;12.20;92.40
55634;DHT22;41504;53.162;6.788;2023-04-24T00:03:55;12.20;92.40
55634;DHT22;41504;53.162;6.788;2023-04-24T00:06:25;12.20;92.40
55634;DHT22;41504;53.162;6.788;2023-04-24T00:09:01;12.10;92.40
55634;DHT22;41504;53.162;6.788;2023-04-24T00:11:28;12.10;92.40
55634;DHT22;41504;53.162;6.788;2023-04-24T00:13:55;12.10;92.30
55634;DHT22;41504;53.162;6.788;2023-04-24T00:16:22;12.10;92.00
55634;DHT22;41504;53.162;6.788;2023-04-24T00:18:48;12.00;91.90
55634;DHT22;41504;53.162;6.788;2023-04-24T00:21:16;11.90;91.70
55634;DHT22;41504;53.162;6.788;2023-04-24T00:23:43;11.80;91.70
55634;DHT22;41504;53.162;6.788;2023-04-24T00:26:10;11.80;91.70
55634;DHT22;41504;53.162;6.788;2023-04-24T00:28:36;11.80;91.70
55634;DHT22;41504;53.162;6.788;2023-04-24T00:31:01;11.70;91.70
55634;DHT22;41504;53.162;6.788;2023-04-24T00:33:27;11.70;91.70
55634;DHT22;41504;53.162;6.788;2023-04-24T00:35:53;11.60;91.70
55634;DHT22;41504;53.162;6.788;2023-04-24T00:38:19;11.70;91.80
55634;DHT22;41504;53.162;6.788;2023-04-24T00:40:44;11.50;91.80
55634;DHT22;41504;53.162;6.788;2023-04-24T00:43:10;11.60;91.80
55634;DHT22;41504;53.162;6.788;2023-04-24T00:45:37;11.50;91.80
55634;DHT22;41504;53.162;6.788;2023-04-24T00:48:04;11.50;91.80
55634;DHT22;41504;53.162;6.788;2023-04-24T00:50:30;11.40;91.80
55634;DHT22;41504;53.162;6.788;2023-04-24T00:52:57;11.40;91.80
55634;DHT22;41504;53.162;6.788;2023-04-24T00:55:24;11.40;91.90
55634;DHT22;41504;53.162;6.788;2023-04-24T00:57:50;11.40;91.90
55634;DHT22;41504;53.162;6.788;2023-04-24T01:00:16;11.30;92.00
55634;DHT22;41504;53.162;6.788;2023-04-24T01:02:44;11.30;92.10
55634;DHT22;41504;53.162;6.788;2023-04-24T01:05:12;11.30;92.10
55634;DHT22;41504;53.162;6.788;2023-04-24T01:07:39;11.20;92.20
55634;DHT22;41504;53.162;6.788;2023-04-24T01:10:07;11.20;92.30
55634;DHT22;41504;53.162;6.788;2023-04-24T01:12:34;11.10;92.40
55634;DHT22;41504;53.162;6.788;2023-04-24T01:15:00;11.10;92.50
55634;DHT22;41504;53.162;6.788;2023-04-24T01:17:26;11.10;92.60
55634;DHT22;41504;53.162;6.788;2023-04-24T01:19:52;11.10;92.60
55634;DHT22;41504;53.162;6.788;2023-04-24T01:22:22;11.00;92.60
55634;DHT22;41504;53.162;6.788;2023-04-24T01:24:48;11.10;92.80
55634;DHT22;41504;53.162;6.788;2023-04-24T01:27:14;11.10;92.80
55634;DHT22;41504;53.162;6.788;2023-04-24T01:29:40;11.10;92.90
55634;DHT22;41504;53.162;6.788;2023-04-24T01:32:06;11.10;92.80
55634;DHT22;41504;53.162;6.788;2023-04-24T01:34:32;11.10;92.90
55634;DHT22;41504;53.162;6.788;2023-04-24T01:36:58;11.10;92.90
55634;DHT22;41504;53.162;6.788;2023-04-24T01:39:24;11.10;92.90
55634;DHT22;41504;53.162;6.788;2023-04-24T01:41:51;11.10;92.90
55634;DHT22;41504;53.162;6.788;2023-04-24T01:44:18;11.10;93.00
55634;DHT22;41504;53.162;6.788;2023-04-24T01:46:44;11.10;93.00
55634;DHT22;41504;53.162;6.788;2023-04-24T01:49:10;11.00;93.00
55634;DHT22;41504;53.162;6.788;2023-04-24T01:51:36;11.00;93.10
55634;DHT22;41504;53.162;6.788;2023-04-24T01:54:02;11.00;93.10
55634;DHT22;41504;53.162;6.788;2023-04-24T01:56:33;10.90;93.20
55634;DHT22;41504;53.162;6.788;2023-04-24T01:59:01;10.90;93.30
55634;DHT22;41504;53.162;6.788;2023-04-24T02:01:34;10.90;93.10
55634;DHT22;41504;53.162;6.788;2023-04-24T02:04:00;10.80;93.30
55634;DHT22;41504;53.162;6.788;2023-04-24T02:06:26;10.80;93.40
55634;DHT22;41504;53.162;6.788;2023-04-24T02:08:52;10.90;93.40
55634;DHT22;41504;53.162;6.788;2023-04-24T02:11:17;10.90;93.40
55634;DHT22;41504;53.162;6.788;2023-04-24T02:13:44;10.80;93.40
55634;DHT22;41504;53.162;6.788;2023-04-24T02:16:09;10.90;93.50
55634;DHT22;41504;53.162;6.788;2023-04-24T02:18:35;10.80;93.40
55634;DHT22;41504;53.162;6.788;2023-04-24T02:21:01;10.80;93.50
55634;DHT22;41504;53.162;6.788;2023-04-24T02:23:27;10.80;93.40
55634;DHT22;41504;53.162;6.788;2023-04-24T02:25:53;10.90;93.50
55634;DHT22;41504;53.162;6.788;2023-04-24T02:28:19;10.80;93.50
55634;DHT22;41504;53.162;6.788;2023-04-24T02:30:45;10.80;93.50
55634;DHT22;41504;53.162;6.788;2023-04-24T02:33:11;10.70;93.60
55634;DHT22;41504;53.162;6.788;2023-04-24T02:35:37;10.70;93.60
55634;DHT22;41504;53.162;6.788;2023-04-24T02:38:03;10.70;93.70
55634;DHT22;41504;53.162;6.788;2023-04-24T02:40:29;10.70;93.70
55634;DHT22;41504;53.162;6.788;2023-04-24T02:42:55;10.70;93.80
55634;DHT22;41504;53.162;6.788;2023-04-24T02:45:21;10.80;93.80
55634;DHT22;41504;53.162;6.788;2023-04-24T02:47:46;10.80;93.80
55634;DHT22;41504;53.162;6.788;2023-04-24T02:50:12;10.80;93.90
55634;DHT22;41504;53.162;6.788;2023-04-24T02:52:38;10.80;94.00
55634;DHT22;41504;53.162;6.788;2023-04-24T02:55:04;10.70;93.90
55634;DHT22;41504;53.162;6.788;2023-04-24T02:57:30;10.80;94.00
55634;DHT22;41504;53.162;6.788;2023-04-24T02:59:56;10.70;94.00
55634;DHT22;41504;53.162;6.788;2023-04-24T03:02:21;10.70;94.10
55634;DHT22;41504;53.162;6.788;2023-04-24T03:04:47;10.70;94.10
55634;DHT22;41504;53.162;6.788;2023-04-24T03:07:14;10.70;94.10
55634;DHT22;41504;53.162;6.788;2023-04-24T03:09:40;10.70;94.20
55634;DHT22;41504;53.162;6.788;2023-04-24T03:12:06;10.70;94.30
55634;DHT22;41504;53.162;6.788;2023-04-24T03:14:32;10.60;94.50
55634;DHT22;41504;53.162;6.788;2023-04-24T03:16:58;10.60;94.40
55634;DHT22;41504;53.162;6.788;2023-04-24T03:19:24;10.60;94.40
55634;DHT22;41504;53.162;6.788;2023-04-24T03:21:50;10.50;94.40
55634;DHT22;41504;53.162;6.788;2023-04-24T03:24:16;10.60;94.50
55634;DHT22;41504;53.162;6.788;2023-04-24T03:26:41;10.60;94.50
55634;DHT22;41504;53.162;6.788;2023-04-24T03:29:07;10.50;94.50
55634;DHT22;41504;53.162;6.788;2023-04-24T03:31:33;10.50;94.50
55634;DHT22;41504;53.162;6.788;2023-04-24T03:33:59;10.50;94.50
55634;DHT22;41504;53.162;6.788;2023-04-24T03:36:24;10.60;94.50
55634;DHT22;41504;53.162;6.788;2023-04-24T03:38:51;10.50;94.50
55634;DHT22;41504;53.162;6.788;2023-04-24T03:41:17;10.50;94.60
55634;DHT22;41504;53.162;6.788;2023-04-24T03:43:43;10.50;94.50
55634;DHT22;41504;53.162;6.788;2023-04-24T03:46:08;10.50;94.60
55634;DHT22;41504;53.162;6.788;2023-04-24T03:48:35;10.40;94.60
55634;DHT22;41504;53.162;6.788;2023-04-24T03:51:00;10.40;94.60
55634;DHT22;41504;53.162;6.788;2023-04-24T03:53:26;10.40;94.70
55634;DHT22;41504;53.162;6.788;2023-04-24T03:55:53;10.40;94.70
55634;DHT22;41504;53.162;6.788;2023-04-24T03:58:18;10.40;94.70
55634;DHT22;41504;53.162;6.788;2023-04-24T04:00:44;10.40;94.70
55634;DHT22;41504;53.162;6.788;2023-04-24T04:03:12;10.40;94.60
55634;DHT22;41504;53.162;6.788;2023-04-24T04:05:39;10.40;94.60
55634;DHT22;41504;53.162;6.788;2023-04-24T04:08:05;10.40;94.60
55634;DHT22;41504;53.162;6.788;2023-04-24T04:10:31;10.40;94.60
55634;DHT22;41504;53.162;6.788;2023-04-24T04:12:56;10.40;94.60
55634;DHT22;41504;53.162;6.788;2023-04-24T04:15:22;10.30;94.60
55634;DHT22;41504;53.162;6.788;2023-04-24T04:17:48;10.30;94.60
55634;DHT22;41504;53.162;6.788;2023-04-24T04:20:13;10.30;94.50
55634;DHT22;41504;53.162;6.788;2023-04-24T04:22:40;10.30;94.50
55634;DHT22;41504;53.162;6.788;2023-04-24T04:25:06;10.30;94.60
55634;DHT22;41504;53.162;6.788;2023-04-24T04:27:32;10.30;94.50
55634;DHT22;41504;53.162;6.788;2023-04-24T04:29:59;10.30;94.50
55634;DHT22;41504;53.162;6.788;2023-04-24T04:32:31;10.20;94.50
55634;DHT22;41504;53.162;6.788;2023-04-24T04:34:58;10.20;94.50
55634;DHT22;41504;53.162;6.788;2023-04-24T04:37:29;10.20;94.60
55634;DHT22;41504;53.162;6.788;2023-04-24T04:39:54;10.30;94.50
55634;DHT22;41504;53.162;6.788;2023-04-24T04:42:20;10.20;94.60
55634;DHT22;41504;53.162;6.788;2023-04-24T04:44:46;10.10;94.60
55634;DHT22;41504;53.162;6.788;2023-04-24T04:47:12;10.10;94.60
55634;DHT22;41504;53.162;6.788;2023-04-24T04:49:38;10.20;94.70
55634;DHT22;41504;53.162;6.788;2023-04-24T04:52:04;10.20;94.70
55634;DHT22;41504;53.162;6.788;2023-04-24T04:54:30;10.10;94.70
55634;DHT22;41504;53.162;6.788;2023-04-24T04:56:56;10.10;94.80
55634;DHT22;41504;53.162;6.788;2023-04-24T04:59:22;10.10;94.80
55634;DHT22;41504;53.162;6.788;2023-04-24T05:01:48;10.20;94.90
55634;DHT22;41504;53.162;6.788;2023-04-24T05:04:14;10.10;94.90
55634;DHT22;41504;53.162;6.788;2023-04-24T05:06:39;10.20;94.90
55634;DHT22;41504;53.162;6.788;2023-04-24T05:09:05;10.20;95.00
55634;DHT22;41504;53.162;6.788;2023-04-24T05:11:32;10.20;95.00
55634;DHT22;41504;53.162;6.788;2023-04-24T05:13:58;10.20;95.10
55634;DHT22;41504;53.162;6.788;2023-04-24T05:16:24;10.20;95.10
55634;DHT22;41504;53.162;6.788;2023-04-24T05:18:50;10.20;95.10
55634;DHT22;41504;53.162;6.788;2023-04-24T05:21:15;10.20;95.10
55634;DHT22;41504;53.162;6.788;2023-04-24T05:23:41;10.20;95.20
55634;DHT22;41504;53.162;6.788;2023-04-24T05:26:07;10.20;95.20
55634;DHT22;41504;53.162;6.788;2023-04-24T05:28:33;10.20;95.20
55634;DHT22;41504;53.162;6.788;2023-04-24T05:30:59;10.20;95.20
55634;DHT22;41504;53.162;6.788;2023-04-24T05:33:25;10.10;95.20
55634;DHT22;41504;53.162;6.788;2023-04-24T05:35:51;10.20;95.30
55634;DHT22;41504;53.162;6.788;2023-04-24T05:38:16;10.10;95.30
55634;DHT22;41504;53.162;6.788;2023-04-24T05:40:45;10.00;95.30
55634;DHT22;41504;53.162;6.788;2023-04-24T05:43:11;10.10;95.40
55634;DHT22;41504;53.162;6.788;2023-04-24T05:45:38;10.00;95.40
55634;DHT22;41504;53.162;6.788;2023-04-24T05:48:04;10.00;95.40
55634;DHT22;41504;53.162;6.788;2023-04-24T05:50:31;10.00;95.40
55634;DHT22;41504;53.162;6.788;2023-04-24T05:52:57;10.10;95.50
55634;DHT22;41504;53.162;6.788;2023-04-24T05:55:27;10.00;95.50
55634;DHT22;41504;53.162;6.788;2023-04-24T05:57:53;10.00;95.60
55634;DHT22;41504;53.162;6.788;2023-04-24T06:00:19;10.00;95.60
55634;DHT22;41504;53.162;6.788;2023-04-24T06:02:46;10.00;95.60
55634;DHT22;41504;53.162;6.788;2023-04-24T06:05:11;10.00;95.60
55634;DHT22;41504;53.162;6.788;2023-04-24T06:07:37;10.00;95.60
55634;DHT22;41504;53.162;6.788;2023-04-24T06:10:03;10.00;95.70
55634;DHT22;41504;53.162;6.788;2023-04-24T06:12:29;10.00;95.70
55634;DHT22;41504;53.162;6.788;2023-04-24T06:14:55;10.00;95.70
55634;DHT22;41504;53.162;6.788;2023-04-24T06:17:21;10.10;95.70
55634;DHT22;41504;53.162;6.788;2023-04-24T06:19:47;10.10;95.70
55634;DHT22;41504;53.162;6.788;2023-04-24T06:22:13;10.10;95.70
55634;DHT22;41504;53.162;6.788;2023-04-24T06:24:40;10.20;95.70
55634;DHT22;41504;53.162;6.788;2023-04-24T06:27:05;10.20;95.70
55634;DHT22;41504;53.162;6.788;2023-04-24T06:29:32;10.20;95.70
55634;DHT22;41504;53.162;6.788;2023-04-24T06:31:58;10.20;95.70
55634;DHT22;41504;53.162;6.788;2023-04-24T06:34:24;10.10;95.80
55634;DHT22;41504;53.162;6.788;2023-04-24T06:36:50;10.10;95.80
55634;DHT22;41504;53.162;6.788;2023-04-24T06:39:16;10.10;95.90
55634;DHT22;41504;53.162;6.788;2023-04-24T06:41:42;10.10;96.00
55634;DHT22;41504;53.162;6.788;2023-04-24T06:44:07;10.10;96.00
55634;DHT22;41504;53.162;6.788;2023-04-24T06:46:33;10.10;96.20
55634;DHT22;41504;53.162;6.788;2023-04-24T06:49:00;10.20;96.20
55634;DHT22;41504;53.162;6.788;2023-04-24T06:51:26;10.20;96.50
55634;DHT22;41504;53.162;6.788;2023-04-24T06:57:03;10.10;96.50
55634;DHT22;41504;53.162;6.788;2023-04-24T06:59:29;10.10;96.60
55634;DHT22;41504;53.162;6.788;2023-04-24T07:01:55;10.10;96.60
55634;DHT22;41504;53.162;6.788;2023-04-24T07:04:21;10.10;96.70
55634;DHT22;41504;53.162;6.788;2023-04-24T07:06:47;10.10;96.70
55634;DHT22;41504;53.162;6.788;2023-04-24T07:09:14;10.10;96.70
55634;DHT22;41504;53.162;6.788;2023-04-24T07:11:41;10.10;96.90
55634;DHT22;41504;53.162;6.788;2023-04-24T07:14:07;10.00;97.00
55634;DHT22;41504;53.162;6.788;2023-04-24T07:16:33;10.00;97.00
55634;DHT22;41504;53.162;6.788;2023-04-24T07:18:59;10.00;97.00
55634;DHT22;41504;53.162;6.788;2023-04-24T07:21:25;10.10;96.80
55634;DHT22;41504;53.162;6.788;2023-04-24T07:23:51;10.10;96.90
55634;DHT22;41504;53.162;6.788;2023-04-24T07:26:17;10.10;96.90
55634;DHT22;41504;53.162;6.788;2023-04-24T07:28:43;10.00;96.90
55634;DHT22;41504;53.162;6.788;2023-04-24T07:31:09;10.10;96.80
55634;DHT22;41504;53.162;6.788;2023-04-24T07:33:35;10.00;96.80
55634;DHT22;41504;53.162;6.788;2023-04-24T07:36:01;10.00;96.80
55634;DHT22;41504;53.162;6.788;2023-04-24T07:38:29;10.00;97.00
55634;DHT22;41504;53.162;6.788;2023-04-24T07:40:55;10.00;97.00
55634;DHT22;41504;53.162;6.788;2023-04-24T07:43:21;9.90;97.10
55634;DHT22;41504;53.162;6.788;2023-04-24T07:45:52;10.00;97.20
55634;DHT22;41504;53.162;6.788;2023-04-24T07:48:17;10.00;97.20
55634;DHT22;41504;53.162;6.788;2023-04-24T07:50:44;9.90;97.10
55634;DHT22;41504;53.162;6.788;2023-04-24T07:53:10;9.90;97.10
55634;DHT22;41504;53.162;6.788;2023-04-24T07:55:36;10.00;97.20
55634;DHT22;41504;53.162;6.788;2023-04-24T08:00:31;10.00;97.40
55634;DHT22;41504;53.162;6.788;2023-04-24T08:02:57;10.00;97.20
55634;DHT22;41504;53.162;6.788;2023-04-24T08:05:23;9.90;97.20
55634;DHT22;41504;53.162;6.788;2023-04-24T08:07:51;9.90;97.20
55634;DHT22;41504;53.162;6.788;2023-04-24T08:10:16;9.80;97.20
55634;DHT22;41504;53.162;6.788;2023-04-24T08:12:42;9.80;97.30
55634;DHT22;41504;53.162;6.788;2023-04-24T08:15:08;9.70;97.20
55634;DHT22;41504;53.162;6.788;2023-04-24T08:17:35;9.70;97.20
55634;DHT22;41504;53.162;6.788;2023-04-24T08:20:02;9.60;96.90
55634;DHT22;41504;53.162;6.788;2023-04-24T08:22:28;9.60;97.00
55634;DHT22;41504;53.162;6.788;2023-04-24T08:24:54;9.60;96.80
55634;DHT22;41504;53.162;6.788;2023-04-24T08:27:21;9.60;96.70
55634;DHT22;41504;53.162;6.788;2023-04-24T08:29:47;9.50;96.80
55634;DHT22;41504;53.162;6.788;2023-04-24T08:32:12;9.60;96.80
55634;DHT22;41504;53.162;6.788;2023-04-24T08:34:38;9.50;96.60
55634;DHT22;41504;53.162;6.788;2023-04-24T08:37:04;9.50;96.60
55634;DHT22;41504;53.162;6.788;2023-04-24T08:39:30;9.50;96.70
55634;DHT22;41504;53.162;6.788;2023-04-24T08:41:56;9.50;96.70
55634;DHT22;41504;53.162;6.788;2023-04-24T08:44:21;9.50;96.70
55634;DHT22;41504;53.162;6.788;2023-04-24T08:46:48;9.50;96.50
55634;DHT22;41504;53.162;6.788;2023-04-24T08:49:15;9.50;96.50
55634;DHT22;41504;53.162;6.788;2023-04-24T08:51:44;9.40;96.30
55634;DHT22;41504;53.162;6.788;2023-04-24T08:54:12;9.40;96.40
55634;DHT22;41504;53.162;6.788;2023-04-24T08:56:38;9.50;96.10
55634;DHT22;41504;53.162;6.788;2023-04-24T08:59:06;9.40;96.20
55634;DHT22;41504;53.162;6.788;2023-04-24T09:01:32;9.40;96.30
55634;DHT22;41504;53.162;6.788;2023-04-24T09:04:03;9.40;96.10
55634;DHT22;41504;53.162;6.788;2023-04-24T09:06:30;9.40;96.20
55634;DHT22;41504;53.162;6.788;2023-04-24T09:08:58;9.40;96.10
55634;DHT22;41504;53.162;6.788;2023-04-24T09:11:26;9.40;96.00
55634;DHT22;41504;53.162;6.788;2023-04-24T09:13:53;9.30;95.90
55634;DHT22;41504;53.162;6.788;2023-04-24T09:16:20;9.30;96.00
55634;DHT22;41504;53.162;6.788;2023-04-24T09:18:46;9.30;96.10
55634;DHT22;41504;53.162;6.788;2023-04-24T09:21:11;9.30;96.00
55634;DHT22;41504;53.162;6.788;2023-04-24T09:23:38;9.20;95.90
55634;DHT22;41504;53.162;6.788;2023-04-24T09:26:04;9.20;95.70
55634;DHT22;41504;53.162;6.788;2023-04-24T09:28:39;9.20;95.80
55634;DHT22;41504;53.162;6.788;2023-04-24T09:31:13;9.20;95.90
55634;DHT22;41504;53.162;6.788;2023-04-24T09:33:40;9.10;95.90
55634;DHT22;41504;53.162;6.788;2023-04-24T09:36:06;9.10;96.00
55634;DHT22;41504;53.162;6.788;2023-04-24T09:38:38;9.10;95.70
55634;DHT22;41504;53.162;6.788;2023-04-24T09:41:08;9.10;95.70
55634;DHT22;41504;53.162;6.788;2023-04-24T09:43:35;9.00;95.70
55634;DHT22;41504;53.162;6.788;2023-04-24T09:46:07;9.00;95.90
55634;DHT22;41504;53.162;6.788;2023-04-24T09:48:35;9.00;95.60
55634;DHT22;41504;53.162;6.788;2023-04-24T09:51:03;9.00;95.60
55634;DHT22;41504;53.162;6.788;2023-04-24T09:53:32;9.00;95.60
55634;DHT22;41504;53.162;6.788;2023-04-24T09:56:11;9.00;95.80
55634;DHT22;41504;53.162;6.788;2023-04-24T09:58:40;9.10;95.40
55634;DHT22;41504;53.162;6.788;2023-04-24T10:01:05;9.00;95.40
55634;DHT22;41504;53.162;6.788;2023-04-24T10:03:32;9.10;95.30
55634;DHT22;41504;53.162;6.788;2023-04-24T10:06:02;9.10;95.40
55634;DHT22;41504;53.162;6.788;2023-04-24T10:08:35;9.00;95.30
55634;DHT22;41504;53.162;6.788;2023-04-24T10:11:01;8.90;95.40
55634;DHT22;41504;53.162;6.788;2023-04-24T10:13:28;8.90;95.70
55634;DHT22;41504;53.162;6.788;2023-04-24T10:15:54;8.90;96.00
55634;DHT22;41504;53.162;6.788;2023-04-24T10:18:21;8.80;96.20
55634;DHT22;41504;53.162;6.788;2023-04-24T10:20:47;8.80;96.20
55634;DHT22;41504;53.162;6.788;2023-04-24T10:23:14;8.80;96.20
55634;DHT22;41504;53.162;6.788;2023-04-24T10:25:40;8.70;96.20
55634;DHT22;41504;53.162;6.788;2023-04-24T10:28:06;8.80;96.20
55634;DHT22;41504;53.162;6.788;2023-04-24T10:30:35;8.90;96.00
55634;DHT22;41504;53.162;6.788;2023-04-24T10:33:07;8.80;95.70
55634;DHT22;41504;53.162;6.788;2023-04-24T10:35:37;9.00;95.00
55634;DHT22;41504;53.162;6.788;2023-04-24T10:38:08;9.10;95.00
55634;DHT22;41504;53.162;6.788;2023-04-24T10:40:35;9.20;94.90
55634;DHT22;41504;53.162;6.788;2023-04-24T10:43:05;9.30;94.60
55634;DHT22;41504;53.162;6.788;2023-04-24T10:45:33;9.40;94.10
55634;DHT22;41504;53.162;6.788;2023-04-24T10:48:05;9.40;93.80
55634;DHT22;41504;53.162;6.788;2023-04-24T10:50:47;9.50;93.60
55634;DHT22;41504;53.162;6.788;2023-04-24T10:53:18;9.60;93.50
55634;DHT22;41504;53.162;6.788;2023-04-24T10:55:56;9.60;93.30
55634;DHT22;41504;53.162;6.788;2023-04-24T10:58:23;9.60;92.20
55634;DHT22;41504;53.162;6.788;2023-04-24T11:00:58;9.70;91.40
55634;DHT22;41504;53.162;6.788;2023-04-24T11:03:33;9.70;91.20
55634;DHT22;41504;53.162;6.788;2023-04-24T11:06:05;9.70;90.00
55634;DHT22;41504;53.162;6.788;2023-04-24T11:08:39;9.70;90.10
55634;DHT22;41504;53.162;6.788;2023-04-24T11:11:13;9.80;90.30
55634;DHT22;41504;53.162;6.788;2023-04-24T11:16:31;9.80;89.60
55634;DHT22;41504;53.162;6.788;2023-04-24T11:27:20;9.80;87.90
55634;DHT22;41504;53.162;6.788;2023-04-24T11:29:59;9.80;86.60
55634;DHT22;41504;53.162;6.788;2023-04-24T11:32:28;9.80;87.80
55634;DHT22;41504;53.162;6.788;2023-04-24T11:34:58;9.80;88.40
55634;DHT22;41504;53.162;6.788;2023-04-24T11:37:33;9.70;88.60
55634;DHT22;41504;53.162;6.788;2023-04-24T11:39:59;9.70;89.40
55634;DHT22;41504;53.162;6.788;2023-04-24T11:42:25;9.70;87.80
55634;DHT22;41504;53.162;6.788;2023-04-24T11:44:55;9.70;87.80
55634;DHT22;41504;53.162;6.788;2023-04-24T11:47:31;9.70;88.00
55634;DHT22;41504;53.162;6.788;2023-04-24T11:49:59;9.70;87.50
55634;DHT22;41504;53.162;6.788;2023-04-24T11:52:26;9.80;87.30
55634;DHT22;41504;53.162;6.788;2023-04-24T11:54:52;9.80;87.10
55634;DHT22;41504;53.162;6.788;2023-04-24T11:57:22;9.80;87.80
55634;DHT22;41504;53.162;6.788;2023-04-24T11:59:49;9.80;88.20
55634;DHT22;41504;53.162;6.788;2023-04-24T12:02:22;9.80;86.80
55634;DHT22;41504;53.162;6.788;2023-04-24T12:04:48;9.80;85.40
55634;DHT22;41504;53.162;6.788;2023-04-24T12:07:14;9.80;85.40
55634;DHT22;41504;53.162;6.788;2023-04-24T12:09:57;9.80;85.40
55634;DHT22;41504;53.162;6.788;2023-04-24T12:12:26;9.80;85.70
55634;DHT22;41504;53.162;6.788;2023-04-24T12:14:56;9.90;85.70
55634;DHT22;41504;53.162;6.788;2023-04-24T12:17:28;9.90;83.40
55634;DHT22;41504;53.162;6.788;2023-04-24T12:19:58;9.90;81.40
55634;DHT22;41504;53.162;6.788;2023-04-24T12:22:24;9.90;83.40
55634;DHT22;41504;53.162;6.788;2023-04-24T12:25:02;9.90;84.70
55634;DHT22;41504;53.162;6.788;2023-04-24T12:27:34;9.90;85.20
55634;DHT22;41504;53.162;6.788;2023-04-24T12:30:03;9.80;85.40
55634;DHT22;41504;53.162;6.788;2023-04-24T12:32:29;9.70;85.10
55634;DHT22;41504;53.162;6.788;2023-04-24T12:34:56;9.60;86.20
55634;DHT22;41504;53.162;6.788;2023-04-24T12:37:26;9.60;86.40
55634;DHT22;41504;53.162;6.788;2023-04-24T12:40:06;9.60;86.20
55634;DHT22;41504;53.162;6.788;2023-04-24T12:42:32;9.50;86.60
55634;DHT22;41504;53.162;6.788;2023-04-24T12:45:00;9.60;86.20
55634;DHT22;41504;53.162;6.788;2023-04-24T12:47:27;9.60;85.90
55634;DHT22;41504;53.162;6.788;2023-04-24T12:49:53;9.70;85.40
55634;DHT22;41504;53.162;6.788;2023-04-24T12:52:24;9.70;84.40
55634;DHT22;41504;53.162;6.788;2023-04-24T12:54:53;9.70;84.70
55634;DHT22;41504;53.162;6.788;2023-04-24T12:57:19;9.80;85.30
55634;DHT22;41504;53.162;6.788;2023-04-24T12:59:45;9.80;85.70
55634;DHT22;41504;53.162;6.788;2023-04-24T13:02:11;10.00;85.70
55634;DHT22;41504;53.162;6.788;2023-04-24T13:04:40;10.00;84.90
55634;DHT22;41504;53.162;6.788;2023-04-24T13:07:05;10.10;84.60
55634;DHT22;41504;53.162;6.788;2023-04-24T13:09:31;10.10;82.80
55634;DHT22;41504;53.162;6.788;2023-04-24T13:11:57;10.10;81.70
55634;DHT22;41504;53.162;6.788;2023-04-24T13:14:23;10.00;80.90
55634;DHT22;41504;53.162;6.788;2023-04-24T13:16:49;9.90;82.20
55634;DHT22;41504;53.162;6.788;2023-04-24T13:19:15;9.90;82.30
55634;DHT22;41504;53.162;6.788;2023-04-24T13:21:41;9.90;81.70
55634;DHT22;41504;53.162;6.788;2023-04-24T13:24:06;9.90;82.10
55634;DHT22;41504;53.162;6.788;2023-04-24T13:26:34;9.90;81.70
55634;DHT22;41504;53.162;6.788;2023-04-24T13:29:00;9.80;82.20
55634;DHT22;41504;53.162;6.788;2023-04-24T13:31:26;9.70;83.20
55634;DHT22;41504;53.162;6.788;2023-04-24T13:33:52;9.70;83.50
55634;DHT22;41504;53.162;6.788;2023-04-24T13:36:18;9.60;83.90
55634;DHT22;41504;53.162;6.788;2023-04-24T13:38:44;9.60;84.30
55634;DHT22;41504;53.162;6.788;2023-04-24T13:41:10;9.60;84.00
55634;DHT22;41504;53.162;6.788;2023-04-24T13:43:36;9.60;84.20
55634;DHT22;41504;53.162;6.788;2023-04-24T13:46:01;9.60;84.80
55634;DHT22;41504;53.162;6.788;2023-04-24T13:48:29;9.60;85.20
55634;DHT22;41504;53.162;6.788;2023-04-24T13:50:55;9.60;85.60
55634;DHT22;41504;53.162;6.788;2023-04-24T13:53:20;9.60;85.60
55634;DHT22;41504;53.162;6.788;2023-04-24T13:55:46;9.60;85.70
55634;DHT22;41504;53.162;6.788;2023-04-24T13:58:12;9.60;85.80
55634;DHT22;41504;53.162;6.788;2023-04-24T14:00:38;9.60;85.90
55634;DHT22;41504;53.162;6.788;2023-04-24T14:03:04;9.70;85.10
55634;DHT22;41504;53.162;6.788;2023-04-24T14:05:30;9.70;85.10
55634;DHT22;41504;53.162;6.788;2023-04-24T14:07:55;9.80;84.40
55634;DHT22;41504;53.162;6.788;2023-04-24T14:10:21;9.90;84.10
55634;DHT22;41504;53.162;6.788;2023-04-24T14:12:47;9.90;83.10
55634;DHT22;41504;53.162;6.788;2023-04-24T14:15:13;9.90;82.00
55634;DHT22;41504;53.162;6.788;2023-04-24T14:17:39;9.90;82.30
55634;DHT22;41504;53.162;6.788;2023-04-24T14:20:06;9.90;82.50
55634;DHT22;41504;53.162;6.788;2023-04-24T14:22:32;9.90;81.20
55634;DHT22;41504;53.162;6.788;2023-04-24T14:24:58;9.80;82.20
55634;DHT22;41504;53.162;6.788;2023-04-24T14:27:24;9.70;83.20
55634;DHT22;41504;53.162;6.788;2023-04-24T14:29:51;9.60;84.70
55634;DHT22;41504;53.162;6.788;2023-04-24T14:32:20;9.50;86.20
55634;DHT22;41504;53.162;6.788;2023-04-24T14:34:46;9.30;87.20
55634;DHT22;41504;53.162;6.788;2023-04-24T14:37:11;9.30;88.00
55634;DHT22;41504;53.162;6.788;2023-04-24T14:39:37;9.20;88.80
55634;DHT22;41504;53.162;6.788;2023-04-24T14:42:06;9.20;89.20
55634;DHT22;41504;53.162;6.788;2023-04-24T14:44:32;9.20;89.60
55634;DHT22;41504;53.162;6.788;2023-04-24T14:46:58;9.20;90.40
55634;DHT22;41504;53.162;6.788;2023-04-24T14:49:24;9.20;90.20
55634;DHT22;41504;53.162;6.788;2023-04-24T14:51:50;9.10;90.40
55634;DHT22;41504;53.162;6.788;2023-04-24T14:54:16;9.20;90.60
55634;DHT22;41504;53.162;6.788;2023-04-24T14:56:45;9.20;90.60
55634;DHT22;41504;53.162;6.788;2023-04-24T14:59:11;9.20;90.70
55634;DHT22;41504;53.162;6.788;2023-04-24T15:01:36;9.30;90.60
55634;DHT22;41504;53.162;6.788;2023-04-24T15:04:02;9.30;90.50
55634;DHT22;41504;53.162;6.788;2023-04-24T15:06:29;9.30;90.60
55634;DHT22;41504;53.162;6.788;2023-04-24T15:08:56;9.40;90.60
55634;DHT22;41504;53.162;6.788;2023-04-24T15:11:22;9.40;90.40
55634;DHT22;41504;53.162;6.788;2023-04-24T15:13:48;9.40;90.50
55634;DHT22;41504;53.162;6.788;2023-04-24T15:16:14;9.40;90.10
55634;DHT22;41504;53.162;6.788;2023-04-24T15:18:40;9.40;90.20
55634;DHT22;41504;53.162;6.788;2023-04-24T15:21:05;9.40;90.20
55634;DHT22;41504;53.162;6.788;2023-04-24T15:23:31;9.40;90.30
55634;DHT22;41504;53.162;6.788;2023-04-24T15:25:57;9.40;90.40
55634;DHT22;41504;53.162;6.788;2023-04-24T15:28:24;9.40;90.40
55634;DHT22;41504;53.162;6.788;2023-04-24T15:30:49;9.40;90.10
55634;DHT22;41504;53.162;6.788;2023-04-24T15:33:15;9.40;90.30
55634;DHT22;41504;53.162;6.788;2023-04-24T15:35:41;9.40;90.40
55634;DHT22;41504;53.162;6.788;2023-04-24T15:38:07;9.40;90.40
55634;DHT22;41504;53.162;6.788;2023-04-24T15:40:33;9.40;90.20
55634;DHT22;41504;53.162;6.788;2023-04-24T15:43:01;9.40;90.20
55634;DHT22;41504;53.162;6.788;2023-04-24T15:45:27;9.40;90.20
55634;DHT22;41504;53.162;6.788;2023-04-24T15:47:53;9.30;90.20
55634;DHT22;41504;53.162;6.788;2023-04-24T15:50:19;9.30;90.40
55634;DHT22;41504;53.162;6.788;2023-04-24T15:52:47;9.30;90.40